sensor_id;sensor_type;location;lat;lon;timestamp;P1;durP1;ratioP1;P2;durP2;ratioP2
35326;SDS011;21436;52.348;20.928;2023-07-22T00:01:04;8.35;;;7.05;;
35326;SDS011;21436;52.348;20.928;2023-07-22T00:03:35;9.27;;;6.85;;
35326;SDS011;21436;52.348;20.928;2023-07-22T00:06:03;9.10;;;6.53;;
35326;SDS011;21436;52.348;20.928;2023-07-22T00:08:35;9.85;;;7.70;;
35326;SDS011;21436;52.348;20.928;2023-07-22T00:11:04;11.88;;;8.07;;
35326;SDS011;21436;52.348;20.928;2023-07-22T00:13:32;10.52;;;8.23;;
35326;SDS011;21436;52.348;20.928;2023-07-22T00:16:00;12.10;;;8.70;;
35326;SDS011;21436;52.348;20.928;2023-07-22T00:18:28;14.98;;;9.45;;
35326;SDS011;21436;52.348;20.928;2023-07-22T00:20:55;10.95;;;9.57;;
35326;SDS011;21436;52.348;20.928;2023-07-22T00:23:23;10.40;;;8.23;;
35326;SDS011;21436;52.348;20.928;2023-07-22T00:25:50;10.30;;;9.10;;
35326;SDS011;21436;52.348;20.928;2023-07-22T00:28:17;11.13;;;8.68;;
35326;SDS011;21436;52.348;20.928;2023-07-22T00:30:45;15.65;;;9.27;;
35326;SDS011;21436;52.348;20.928;2023-07-22T00:33:13;15.77;;;10.00;;
35326;SDS011;21436;52.348;20.928;2023-07-22T00:35:40;14.73;;;9.90;;
35326;SDS011;21436;52.348;20.928;2023-07-22T00:38:08;11.10;;;9.82;;
35326;SDS011;21436;52.348;20.928;2023-07-22T00:40:36;13.82;;;10.52;;
35326;SDS011;21436;52.348;20.928;2023-07-22T00:43:04;13.70;;;11.70;;
35326;SDS011;21436;52.348;20.928;2023-07-22T00:45:34;12.98;;;10.70;;
35326;SDS011;21436;52.348;20.928;2023-07-22T00:48:01;15.90;;;11.63;;
35326;SDS011;21436;52.348;20.928;2023-07-22T00:50:29;14.13;;;10.98;;
35326;SDS011;21436;52.348;20.928;2023-07-22T00:52:57;15.05;;;12.00;;
35326;SDS011;21436;52.348;20.928;2023-07-22T00:55:24;14.85;;;12.15;;
35326;SDS011;21436;52.348;20.928;2023-07-22T00:57:52;16.67;;;11.55;;
35326;SDS011;21436;52.348;20.928;2023-07-22T01:00:19;12.55;;;11.23;;
35326;SDS011;21436;52.348;20.928;2023-07-22T01:02:46;13.68;;;11.05;;
35326;SDS011;21436;52.348;20.928;2023-07-22T01:05:14;16.30;;;11.10;;
35326;SDS011;21436;52.348;20.928;2023-07-22T01:07:41;13.55;;;11.35;;
35326;SDS011;21436;52.348;20.928;2023-07-22T01:10:09;16.92;;;12.55;;
35326;SDS011;21436;52.348;20.928;2023-07-22T01:12:36;14.00;;;12.27;;
35326;SDS011;21436;52.348;20.928;2023-07-22T01:15:05;21.88;;;13.52;;
35326;SDS011;21436;52.348;20.928;2023-07-22T01:17:38;14.57;;;12.68;;
35326;SDS011;21436;52.348;20.928;2023-07-22T01:20:06;16.30;;;12.63;;
35326;SDS011;21436;52.348;20.928;2023-07-22T01:22:36;13.57;;;11.88;;
35326;SDS011;21436;52.348;20.928;2023-07-22T01:25:05;19.92;;;14.05;;
35326;SDS011;21436;52.348;20.928;2023-07-22T01:27:34;18.00;;;14.02;;
35326;SDS011;21436;52.348;20.928;2023-07-22T01:30:01;16.42;;;13.68;;
35326;SDS011;21436;52.348;20.928;2023-07-22T01:32:30;16.73;;;13.80;;
35326;SDS011;21436;52.348;20.928;2023-07-22T01:34:58;17.73;;;13.55;;
35326;SDS011;21436;52.348;20.928;2023-07-22T01:37:26;17.45;;;14.30;;
35326;SDS011;21436;52.348;20.928;2023-07-22T01:39:53;16.85;;;14.43;;
35326;SDS011;21436;52.348;20.928;2023-07-22T01:42:24;25.65;;;17.08;;
35326;SDS011;21436;52.348;20.928;2023-07-22T01:44:52;15.15;;;12.95;;
35326;SDS011;21436;52.348;20.928;2023-07-22T01:47:20;17.25;;;14.13;;
35326;SDS011;21436;52.348;20.928;2023-07-22T01:49:47;17.80;;;13.48;;
35326;SDS011;21436;52.348;20.928;2023-07-22T01:52:14;22.00;;;14.98;;
35326;SDS011;21436;52.348;20.928;2023-07-22T01:54:41;18.92;;;13.15;;
35326;SDS011;21436;52.348;20.928;2023-07-22T01:57:09;16.08;;;13.30;;
35326;SDS011;21436;52.348;20.928;2023-07-22T01:59:36;18.65;;;13.90;;
35326;SDS011;21436;52.348;20.928;2023-07-22T02:02:04;20.50;;;14.48;;
35326;SDS011;21436;52.348;20.928;2023-07-22T02:04:31;18.83;;;14.90;;
35326;SDS011;21436;52.348;20.928;2023-07-22T02:06:59;18.50;;;14.75;;
35326;SDS011;21436;52.348;20.928;2023-07-22T02:09:28;16.75;;;12.80;;
35326;SDS011;21436;52.348;20.928;2023-07-22T02:11:55;16.48;;;13.60;;
35326;SDS011;21436;52.348;20.928;2023-07-22T02:14:23;18.75;;;12.88;;
35326;SDS011;21436;52.348;20.928;2023-07-22T02:16:50;15.63;;;13.18;;
35326;SDS011;21436;52.348;20.928;2023-07-22T02:19:17;18.58;;;13.77;;
35326;SDS011;21436;52.348;20.928;2023-07-22T02:21:45;18.58;;;13.93;;
35326;SDS011;21436;52.348;20.928;2023-07-22T02:24:12;31.20;;;19.88;;
35326;SDS011;21436;52.348;20.928;2023-07-22T02:26:40;33.05;;;19.98;;
35326;SDS011;21436;52.348;20.928;2023-07-22T02:29:08;28.67;;;18.67;;
35326;SDS011;21436;52.348;20.928;2023-07-22T02:31:35;20.83;;;15.50;;
35326;SDS011;21436;52.348;20.928;2023-07-22T02:34:02;18.70;;;14.80;;
35326;SDS011;21436;52.348;20.928;2023-07-22T02:36:30;19.10;;;14.85;;
35326;SDS011;21436;52.348;20.928;2023-07-22T02:38:57;21.75;;;15.75;;
35326;SDS011;21436;52.348;20.928;2023-07-22T02:41:24;19.55;;;15.82;;
35326;SDS011;21436;52.348;20.928;2023-07-22T02:43:51;19.90;;;14.75;;
35326;SDS011;21436;52.348;20.928;2023-07-22T02:46:19;17.27;;;13.57;;
35326;SDS011;21436;52.348;20.928;2023-07-22T02:48:46;15.95;;;13.82;;
35326;SDS011;21436;52.348;20.928;2023-07-22T02:51:14;19.10;;;14.32;;
35326;SDS011;21436;52.348;20.928;2023-07-22T02:53:41;19.13;;;13.82;;
35326;SDS011;21436;52.348;20.928;2023-07-22T02:56:08;16.75;;;14.30;;
35326;SDS011;21436;52.348;20.928;2023-07-22T02:58:38;19.33;;;14.65;;
35326;SDS011;21436;52.348;20.928;2023-07-22T03:01:05;17.40;;;14.52;;
35326;SDS011;21436;52.348;20.928;2023-07-22T03:03:36;17.25;;;15.00;;
35326;SDS011;21436;52.348;20.928;2023-07-22T03:06:04;22.52;;;15.95;;
35326;SDS011;21436;52.348;20.928;2023-07-22T03:08:31;19.83;;;15.27;;
35326;SDS011;21436;52.348;20.928;2023-07-22T03:10:59;21.80;;;16.58;;
35326;SDS011;21436;52.348;20.928;2023-07-22T03:13:26;21.95;;;17.55;;
35326;SDS011;21436;52.348;20.928;2023-07-22T03:15:57;21.73;;;16.55;;
35326;SDS011;21436;52.348;20.928;2023-07-22T03:18:25;23.48;;;17.10;;
35326;SDS011;21436;52.348;20.928;2023-07-22T03:20:52;23.95;;;17.60;;
35326;SDS011;21436;52.348;20.928;2023-07-22T03:23:19;24.27;;;17.83;;
35326;SDS011;21436;52.348;20.928;2023-07-22T03:25:47;21.67;;;16.80;;
35326;SDS011;21436;52.348;20.928;2023-07-22T03:28:14;21.90;;;16.63;;
35326;SDS011;21436;52.348;20.928;2023-07-22T03:30:42;21.00;;;15.75;;
35326;SDS011;21436;52.348;20.928;2023-07-22T03:33:09;20.70;;;16.02;;
35326;SDS011;21436;52.348;20.928;2023-07-22T03:35:37;19.77;;;15.20;;
35326;SDS011;21436;52.348;20.928;2023-07-22T03:38:06;19.35;;;15.93;;
35326;SDS011;21436;52.348;20.928;2023-07-22T03:40:33;19.02;;;16.42;;
35326;SDS011;21436;52.348;20.928;2023-07-22T03:43:00;20.48;;;16.65;;
35326;SDS011;21436;52.348;20.928;2023-07-22T03:45:28;20.80;;;16.13;;
35326;SDS011;21436;52.348;20.928;2023-07-22T03:47:57;21.60;;;17.20;;
35326;SDS011;21436;52.348;20.928;2023-07-22T03:50:26;21.23;;;17.00;;
35326;SDS011;21436;52.348;20.928;2023-07-22T03:52:53;22.23;;;17.50;;
35326;SDS011;21436;52.348;20.928;2023-07-22T03:55:21;17.90;;;15.63;;
35326;SDS011;21436;52.348;20.928;2023-07-22T03:57:48;21.48;;;16.83;;
35326;SDS011;21436;52.348;20.928;2023-07-22T04:00:15;19.67;;;16.50;;
35326;SDS011;21436;52.348;20.928;2023-07-22T04:02:43;22.02;;;17.95;;
35326;SDS011;21436;52.348;20.928;2023-07-22T04:05:11;19.77;;;15.93;;
35326;SDS011;21436;52.348;20.928;2023-07-22T04:07:38;21.60;;;16.65;;
35326;SDS011;21436;52.348;20.928;2023-07-22T04:10:06;20.77;;;15.60;;
35326;SDS011;21436;52.348;20.928;2023-07-22T04:12:34;22.15;;;15.90;;
35326;SDS011;21436;52.348;20.928;2023-07-22T04:15:01;20.25;;;14.70;;
35326;SDS011;21436;52.348;20.928;2023-07-22T04:17:29;19.33;;;14.55;;
35326;SDS011;21436;52.348;20.928;2023-07-22T04:19:57;15.93;;;14.13;;
35326;SDS011;21436;52.348;20.928;2023-07-22T04:22:24;18.92;;;14.85;;
35326;SDS011;21436;52.348;20.928;2023-07-22T04:24:51;19.67;;;14.70;;
35326;SDS011;21436;52.348;20.928;2023-07-22T04:27:19;16.55;;;14.70;;
35326;SDS011;21436;52.348;20.928;2023-07-22T04:29:47;19.40;;;14.82;;
35326;SDS011;21436;52.348;20.928;2023-07-22T04:34:50;18.08;;;15.00;;
35326;SDS011;21436;52.348;20.928;2023-07-22T04:37:17;22.13;;;15.38;;
35326;SDS011;21436;52.348;20.928;2023-07-22T04:39:48;17.75;;;15.02;;
35326;SDS011;21436;52.348;20.928;2023-07-22T04:42:17;20.20;;;16.13;;
35326;SDS011;21436;52.348;20.928;2023-07-22T04:44:44;20.00;;;15.75;;
35326;SDS011;21436;52.348;20.928;2023-07-22T04:47:12;21.35;;;15.55;;
35326;SDS011;21436;52.348;20.928;2023-07-22T04:49:39;20.65;;;16.20;;
35326;SDS011;21436;52.348;20.928;2023-07-22T04:52:07;22.05;;;16.15;;
35326;SDS011;21436;52.348;20.928;2023-07-22T04:54:35;21.10;;;15.38;;
35326;SDS011;21436;52.348;20.928;2023-07-22T04:57:02;18.85;;;15.65;;
35326;SDS011;21436;52.348;20.928;2023-07-22T04:59:30;19.63;;;16.45;;
35326;SDS011;21436;52.348;20.928;2023-07-22T05:01:58;24.17;;;17.35;;
35326;SDS011;21436;52.348;20.928;2023-07-22T05:04:25;20.75;;;17.23;;
35326;SDS011;21436;52.348;20.928;2023-07-22T05:06:53;21.08;;;17.52;;
35326;SDS011;21436;52.348;20.928;2023-07-22T05:09:20;20.08;;;16.92;;
35326;SDS011;21436;52.348;20.928;2023-07-22T05:11:48;27.67;;;16.98;;
35326;SDS011;21436;52.348;20.928;2023-07-22T05:14:16;20.45;;;16.17;;
35326;SDS011;21436;52.348;20.928;2023-07-22T05:16:44;19.30;;;15.95;;
35326;SDS011;21436;52.348;20.928;2023-07-22T05:19:11;20.73;;;16.42;;
35326;SDS011;21436;52.348;20.928;2023-07-22T05:21:39;18.65;;;15.40;;
35326;SDS011;21436;52.348;20.928;2023-07-22T05:24:06;20.42;;;15.68;;
35326;SDS011;21436;52.348;20.928;2023-07-22T05:26:34;19.02;;;15.68;;
35326;SDS011;21436;52.348;20.928;2023-07-22T05:29:02;17.80;;;15.90;;
35326;SDS011;21436;52.348;20.928;2023-07-22T05:31:29;20.90;;;15.70;;
35326;SDS011;21436;52.348;20.928;2023-07-22T05:33:57;17.88;;;15.32;;
35326;SDS011;21436;52.348;20.928;2023-07-22T05:36:25;20.55;;;15.20;;
35326;SDS011;21436;52.348;20.928;2023-07-22T05:38:53;18.33;;;15.25;;
35326;SDS011;21436;52.348;20.928;2023-07-22T05:41:20;20.70;;;14.73;;
35326;SDS011;21436;52.348;20.928;2023-07-22T05:43:48;19.33;;;14.95;;
35326;SDS011;21436;52.348;20.928;2023-07-22T05:46:15;18.13;;;14.07;;
35326;SDS011;21436;52.348;20.928;2023-07-22T05:48:43;18.05;;;14.20;;
35326;SDS011;21436;52.348;20.928;2023-07-22T05:51:11;17.67;;;13.65;;
35326;SDS011;21436;52.348;20.928;2023-07-22T05:53:38;15.35;;;12.10;;
35326;SDS011;21436;52.348;20.928;2023-07-22T05:56:06;15.88;;;12.85;;
35326;SDS011;21436;52.348;20.928;2023-07-22T05:58:34;16.58;;;12.95;;
35326;SDS011;21436;52.348;20.928;2023-07-22T06:01:02;14.52;;;12.63;;
35326;SDS011;21436;52.348;20.928;2023-07-22T06:03:29;16.90;;;12.20;;
35326;SDS011;21436;52.348;20.928;2023-07-22T06:05:57;15.02;;;12.57;;
35326;SDS011;21436;52.348;20.928;2023-07-22T06:08:25;14.48;;;11.77;;
35326;SDS011;21436;52.348;20.928;2023-07-22T06:10:53;16.15;;;11.88;;
35326;SDS011;21436;52.348;20.928;2023-07-22T06:13:20;13.70;;;11.13;;
35326;SDS011;21436;52.348;20.928;2023-07-22T06:15:48;17.05;;;11.20;;
35326;SDS011;21436;52.348;20.928;2023-07-22T06:18:15;12.75;;;11.30;;
35326;SDS011;21436;52.348;20.928;2023-07-22T06:20:43;13.10;;;10.98;;
35326;SDS011;21436;52.348;20.928;2023-07-22T06:23:10;13.52;;;10.13;;
35326;SDS011;21436;52.348;20.928;2023-07-22T06:25:38;14.85;;;10.00;;
35326;SDS011;21436;52.348;20.928;2023-07-22T06:28:06;13.18;;;10.27;;
35326;SDS011;21436;52.348;20.928;2023-07-22T06:30:34;9.32;;;8.38;;
35326;SDS011;21436;52.348;20.928;2023-07-22T06:33:01;11.52;;;9.18;;
35326;SDS011;21436;52.348;20.928;2023-07-22T06:35:29;12.73;;;8.40;;
35326;SDS011;21436;52.348;20.928;2023-07-22T06:37:56;12.88;;;8.48;;
35326;SDS011;21436;52.348;20.928;2023-07-22T06:40:24;9.00;;;7.70;;
35326;SDS011;21436;52.348;20.928;2023-07-22T06:42:52;8.40;;;7.47;;
35326;SDS011;21436;52.348;20.928;2023-07-22T06:45:20;9.27;;;7.20;;
35326;SDS011;21436;52.348;20.928;2023-07-22T06:47:47;8.32;;;6.22;;
35326;SDS011;21436;52.348;20.928;2023-07-22T06:50:15;6.63;;;5.95;;
35326;SDS011;21436;52.348;20.928;2023-07-22T06:52:42;7.57;;;6.32;;
35326;SDS011;21436;52.348;20.928;2023-07-22T06:55:10;5.80;;;5.20;;
35326;SDS011;21436;52.348;20.928;2023-07-22T06:57:40;6.03;;;5.43;;
35326;SDS011;21436;52.348;20.928;2023-07-22T07:00:08;5.97;;;5.32;;
35326;SDS011;21436;52.348;20.928;2023-07-22T07:02:39;8.90;;;4.70;;
35326;SDS011;21436;52.348;20.928;2023-07-22T07:05:07;5.97;;;4.78;;
35326;SDS011;21436;52.348;20.928;2023-07-22T07:07:34;5.65;;;4.28;;
35326;SDS011;21436;52.348;20.928;2023-07-22T07:10:02;4.80;;;3.80;;
35326;SDS011;21436;52.348;20.928;2023-07-22T07:12:29;4.93;;;3.90;;
35326;SDS011;21436;52.348;20.928;2023-07-22T07:14:57;6.38;;;4.03;;
35326;SDS011;21436;52.348;20.928;2023-07-22T07:17:25;6.18;;;4.40;;
35326;SDS011;21436;52.348;20.928;2023-07-22T07:19:52;5.68;;;3.95;;
35326;SDS011;21436;52.348;20.928;2023-07-22T07:22:20;5.22;;;3.75;;
35326;SDS011;21436;52.348;20.928;2023-07-22T07:24:47;5.70;;;4.18;;
35326;SDS011;21436;52.348;20.928;2023-07-22T07:27:15;5.50;;;4.30;;
35326;SDS011;21436;52.348;20.928;2023-07-22T07:29:43;4.95;;;4.15;;
35326;SDS011;21436;52.348;20.928;2023-07-22T07:32:20;8.85;;;4.40;;
35326;SDS011;21436;52.348;20.928;2023-07-22T07:34:48;4.13;;;3.72;;
35326;SDS011;21436;52.348;20.928;2023-07-22T07:37:16;5.85;;;3.85;;
35326;SDS011;21436;52.348;20.928;2023-07-22T07:39:44;4.03;;;3.45;;
35326;SDS011;21436;52.348;20.928;2023-07-22T07:42:12;4.03;;;3.63;;
35326;SDS011;21436;52.348;20.928;2023-07-22T07:44:39;4.65;;;3.10;;
35326;SDS011;21436;52.348;20.928;2023-07-22T07:47:07;4.05;;;3.08;;
35326;SDS011;21436;52.348;20.928;2023-07-22T07:49:34;4.25;;;2.88;;
35326;SDS011;21436;52.348;20.928;2023-07-22T07:52:02;3.35;;;2.60;;
35326;SDS011;21436;52.348;20.928;2023-07-22T07:54:30;4.38;;;3.28;;
35326;SDS011;21436;52.348;20.928;2023-07-22T07:57:00;5.13;;;2.83;;
35326;SDS011;21436;52.348;20.928;2023-07-22T07:59:28;3.90;;;3.10;;
35326;SDS011;21436;52.348;20.928;2023-07-22T08:01:55;7.53;;;2.50;;
35326;SDS011;21436;52.348;20.928;2023-07-22T08:04:23;4.93;;;3.42;;
35326;SDS011;21436;52.348;20.928;2023-07-22T08:06:51;3.45;;;2.50;;
35326;SDS011;21436;52.348;20.928;2023-07-22T08:09:18;3.67;;;2.90;;
35326;SDS011;21436;52.348;20.928;2023-07-22T08:11:47;4.15;;;2.70;;
35326;SDS011;21436;52.348;20.928;2023-07-22T08:14:15;3.92;;;2.80;;
35326;SDS011;21436;52.348;20.928;2023-07-22T08:16:44;5.43;;;2.90;;
35326;SDS011;21436;52.348;20.928;2023-07-22T08:19:12;4.88;;;2.92;;
35326;SDS011;21436;52.348;20.928;2023-07-22T08:21:39;4.28;;;2.53;;
35326;SDS011;21436;52.348;20.928;2023-07-22T08:24:08;3.70;;;2.50;;
35326;SDS011;21436;52.348;20.928;2023-07-22T08:26:36;6.65;;;2.55;;
35326;SDS011;21436;52.348;20.928;2023-07-22T08:29:04;4.13;;;2.70;;
35326;SDS011;21436;52.348;20.928;2023-07-22T08:31:31;7.55;;;2.83;;
35326;SDS011;21436;52.348;20.928;2023-07-22T08:33:59;3.70;;;3.03;;
35326;SDS011;21436;52.348;20.928;2023-07-22T08:36:27;3.95;;;3.30;;
35326;SDS011;21436;52.348;20.928;2023-07-22T08:38:55;9.88;;;4.03;;
35326;SDS011;21436;52.348;20.928;2023-07-22T08:41:22;4.68;;;3.55;;
35326;SDS011;21436;52.348;20.928;2023-07-22T08:43:52;6.18;;;4.50;;
35326;SDS011;21436;52.348;20.928;2023-07-22T08:46:22;7.05;;;4.60;;
35326;SDS011;21436;52.348;20.928;2023-07-22T08:48:52;5.30;;;3.92;;
35326;SDS011;21436;52.348;20.928;2023-07-22T08:51:20;8.00;;;5.45;;
35326;SDS011;21436;52.348;20.928;2023-07-22T08:53:50;7.20;;;4.95;;
35326;SDS011;21436;52.348;20.928;2023-07-22T08:56:37;6.72;;;4.97;;
35326;SDS011;21436;52.348;20.928;2023-07-22T08:59:06;7.85;;;4.82;;
35326;SDS011;21436;52.348;20.928;2023-07-22T09:01:33;5.10;;;4.20;;
35326;SDS011;21436;52.348;20.928;2023-07-22T09:04:04;9.63;;;3.80;;
35326;SDS011;21436;52.348;20.928;2023-07-22T09:06:31;6.07;;;4.18;;
35326;SDS011;21436;52.348;20.928;2023-07-22T09:09:00;5.18;;;4.68;;
35326;SDS011;21436;52.348;20.928;2023-07-22T09:11:27;6.60;;;3.97;;
35326;SDS011;21436;52.348;20.928;2023-07-22T09:13:55;6.95;;;3.92;;
35326;SDS011;21436;52.348;20.928;2023-07-22T09:16:23;5.30;;;3.70;;
35326;SDS011;21436;52.348;20.928;2023-07-22T09:18:55;5.78;;;3.45;;
35326;SDS011;21436;52.348;20.928;2023-07-22T09:21:24;3.50;;;2.30;;
35326;SDS011;21436;52.348;20.928;2023-07-22T09:23:52;4.53;;;2.58;;
35326;SDS011;21436;52.348;20.928;2023-07-22T09:26:20;4.22;;;2.50;;
35326;SDS011;21436;52.348;20.928;2023-07-22T09:28:55;3.20;;;1.90;;
35326;SDS011;21436;52.348;20.928;2023-07-22T09:31:24;3.75;;;2.35;;
35326;SDS011;21436;52.348;20.928;2023-07-22T09:33:53;3.55;;;2.13;;
35326;SDS011;21436;52.348;20.928;2023-07-22T09:36:23;3.55;;;1.90;;
35326;SDS011;21436;52.348;20.928;2023-07-22T09:39:00;4.03;;;2.30;;
35326;SDS011;21436;52.348;20.928;2023-07-22T09:41:30;3.40;;;2.15;;
35326;SDS011;21436;52.348;20.928;2023-07-22T09:44:02;3.50;;;1.88;;
35326;SDS011;21436;52.348;20.928;2023-07-22T09:46:32;7.88;;;2.05;;
35326;SDS011;21436;52.348;20.928;2023-07-22T09:49:07;2.17;;;1.70;;
35326;SDS011;21436;52.348;20.928;2023-07-22T09:51:36;3.05;;;1.80;;
35326;SDS011;21436;52.348;20.928;2023-07-22T09:54:26;7.03;;;1.73;;
35326;SDS011;21436;52.348;20.928;2023-07-22T09:56:56;2.65;;;1.85;;
35326;SDS011;21436;52.348;20.928;2023-07-22T09:59:23;3.35;;;1.90;;
35326;SDS011;21436;52.348;20.928;2023-07-22T10:01:51;4.82;;;2.50;;
35326;SDS011;21436;52.348;20.928;2023-07-22T10:04:19;3.88;;;1.85;;
35326;SDS011;21436;52.348;20.928;2023-07-22T10:06:48;2.40;;;2.20;;
35326;SDS011;21436;52.348;20.928;2023-07-22T10:09:16;5.20;;;2.80;;
35326;SDS011;21436;52.348;20.928;2023-07-22T10:11:44;2.40;;;2.20;;
35326;SDS011;21436;52.348;20.928;2023-07-22T10:14:12;2.95;;;2.08;;
35326;SDS011;21436;52.348;20.928;2023-07-22T10:16:41;2.58;;;2.03;;
35326;SDS011;21436;52.348;20.928;2023-07-22T10:19:09;2.40;;;2.10;;
35326;SDS011;21436;52.348;20.928;2023-07-22T10:21:38;2.42;;;2.10;;
35326;SDS011;21436;52.348;20.928;2023-07-22T10:24:06;2.05;;;1.85;;
35326;SDS011;21436;52.348;20.928;2023-07-22T10:26:34;2.60;;;1.83;;
35326;SDS011;21436;52.348;20.928;2023-07-22T10:29:14;3.03;;;1.60;;
35326;SDS011;21436;52.348;20.928;2023-07-22T10:31:41;3.00;;;1.70;;
35326;SDS011;21436;52.348;20.928;2023-07-22T10:34:09;2.67;;;1.85;;
35326;SDS011;21436;52.348;20.928;2023-07-22T10:36:36;2.78;;;1.50;;
35326;SDS011;21436;52.348;20.928;2023-07-22T10:39:04;2.67;;;1.88;;
35326;SDS011;21436;52.348;20.928;2023-07-22T10:41:32;3.13;;;1.85;;
35326;SDS011;21436;52.348;20.928;2023-07-22T10:44:00;3.15;;;1.95;;
35326;SDS011;21436;52.348;20.928;2023-07-22T10:46:32;3.55;;;1.75;;
35326;SDS011;21436;52.348;20.928;2023-07-22T10:49:06;2.83;;;1.90;;
35326;SDS011;21436;52.348;20.928;2023-07-22T10:51:37;3.28;;;1.80;;
35326;SDS011;21436;52.348;20.928;2023-07-22T10:54:11;5.07;;;1.90;;
35326;SDS011;21436;52.348;20.928;2023-07-22T10:56:43;2.25;;;1.83;;
35326;SDS011;21436;52.348;20.928;2023-07-22T10:59:11;2.67;;;1.73;;
35326;SDS011;21436;52.348;20.928;2023-07-22T11:01:39;3.67;;;1.70;;
35326;SDS011;21436;52.348;20.928;2023-07-22T11:12:11;5.75;;;1.80;;
35326;SDS011;21436;52.348;20.928;2023-07-22T11:14:50;1.80;;;1.70;;
35326;SDS011;21436;52.348;20.928;2023-07-22T11:17:29;3.47;;;1.88;;
35326;SDS011;21436;52.348;20.928;2023-07-22T11:19:59;3.28;;;1.88;;
35326;SDS011;21436;52.348;20.928;2023-07-22T11:22:27;2.80;;;1.85;;
35326;SDS011;21436;52.348;20.928;2023-07-22T11:24:58;4.25;;;1.90;;
35326;SDS011;21436;52.348;20.928;2023-07-22T11:27:27;2.05;;;1.80;;
35326;SDS011;21436;52.348;20.928;2023-07-22T11:29:57;3.35;;;1.90;;
35326;SDS011;21436;52.348;20.928;2023-07-22T11:32:25;4.40;;;2.63;;
35326;SDS011;21436;52.348;20.928;2023-07-22T11:34:53;5.68;;;2.00;;
35326;SDS011;21436;52.348;20.928;2023-07-22T11:37:20;3.90;;;2.00;;
35326;SDS011;21436;52.348;20.928;2023-07-22T11:39:48;4.03;;;2.20;;
35326;SDS011;21436;52.348;20.928;2023-07-22T11:42:15;3.92;;;2.05;;
35326;SDS011;21436;52.348;20.928;2023-07-22T11:44:44;3.03;;;2.05;;
35326;SDS011;21436;52.348;20.928;2023-07-22T11:47:11;3.72;;;1.90;;
35326;SDS011;21436;52.348;20.928;2023-07-22T11:49:40;2.03;;;1.70;;
35326;SDS011;21436;52.348;20.928;2023-07-22T11:52:09;3.58;;;1.90;;
35326;SDS011;21436;52.348;20.928;2023-07-22T11:54:38;2.33;;;2.03;;
35326;SDS011;21436;52.348;20.928;2023-07-22T11:59:51;3.50;;;2.03;;
35326;SDS011;21436;52.348;20.928;2023-07-22T12:02:24;2.83;;;1.95;;
35326;SDS011;21436;52.348;20.928;2023-07-22T12:04:56;3.25;;;2.10;;
35326;SDS011;21436;52.348;20.928;2023-07-22T12:07:25;2.80;;;1.80;;
35326;SDS011;21436;52.348;20.928;2023-07-22T12:09:55;2.60;;;2.13;;
35326;SDS011;21436;52.348;20.928;2023-07-22T12:15:13;2.28;;;1.98;;
35326;SDS011;21436;52.348;20.928;2023-07-22T12:17:53;3.28;;;2.10;;
35326;SDS011;21436;52.348;20.928;2023-07-22T12:20:23;4.15;;;1.83;;
35326;SDS011;21436;52.348;20.928;2023-07-22T12:22:56;3.40;;;2.17;;
35326;SDS011;21436;52.348;20.928;2023-07-22T12:25:24;2.35;;;1.55;;
35326;SDS011;21436;52.348;20.928;2023-07-22T12:27:52;2.13;;;1.92;;
35326;SDS011;21436;52.348;20.928;2023-07-22T12:30:20;2.70;;;1.90;;
35326;SDS011;21436;52.348;20.928;2023-07-22T12:32:48;3.22;;;1.88;;
35326;SDS011;21436;52.348;20.928;2023-07-22T12:35:16;3.92;;;2.00;;
35326;SDS011;21436;52.348;20.928;2023-07-22T12:37:43;2.88;;;1.83;;
35326;SDS011;21436;52.348;20.928;2023-07-22T12:40:11;1.80;;;1.67;;
35326;SDS011;21436;52.348;20.928;2023-07-22T12:42:39;2.20;;;2.00;;
35326;SDS011;21436;52.348;20.928;2023-07-22T12:45:08;2.55;;;1.85;;
35326;SDS011;21436;52.348;20.928;2023-07-22T12:47:36;4.53;;;2.00;;
35326;SDS011;21436;52.348;20.928;2023-07-22T12:50:05;2.47;;;1.92;;
35326;SDS011;21436;52.348;20.928;2023-07-22T12:52:36;2.85;;;1.90;;
35326;SDS011;21436;52.348;20.928;2023-07-22T12:55:05;4.10;;;1.80;;
35326;SDS011;21436;52.348;20.928;2023-07-22T12:57:32;2.20;;;1.77;;
35326;SDS011;21436;52.348;20.928;2023-07-22T13:00:00;1.98;;;1.70;;
35326;SDS011;21436;52.348;20.928;2023-07-22T13:02:28;4.60;;;1.88;;
35326;SDS011;21436;52.348;20.928;2023-07-22T13:04:56;3.65;;;1.90;;
35326;SDS011;21436;52.348;20.928;2023-07-22T13:07:23;3.70;;;1.80;;
35326;SDS011;21436;52.348;20.928;2023-07-22T13:09:51;7.00;;;2.88;;
35326;SDS011;21436;52.348;20.928;2023-07-22T13:12:21;5.32;;;1.98;;
35326;SDS011;21436;52.348;20.928;2023-07-22T13:14:49;2.17;;;1.75;;
35326;SDS011;21436;52.348;20.928;2023-07-22T13:17:16;12.00;;;2.20;;
35326;SDS011;21436;52.348;20.928;2023-07-22T13:19:44;1.77;;;1.67;;
35326;SDS011;21436;52.348;20.928;2023-07-22T13:22:12;2.67;;;1.90;;
35326;SDS011;21436;52.348;20.928;2023-07-22T13:24:40;5.65;;;2.05;;
35326;SDS011;21436;52.348;20.928;2023-07-22T13:27:07;4.63;;;1.85;;
35326;SDS011;21436;52.348;20.928;2023-07-22T13:29:35;4.25;;;2.03;;
35326;SDS011;21436;52.348;20.928;2023-07-22T13:32:03;3.63;;;1.95;;
35326;SDS011;21436;52.348;20.928;2023-07-22T13:34:31;3.13;;;1.75;;
35326;SDS011;21436;52.348;20.928;2023-07-22T13:36:59;3.88;;;2.00;;
35326;SDS011;21436;52.348;20.928;2023-07-22T13:39:29;2.85;;;1.80;;
35326;SDS011;21436;52.348;20.928;2023-07-22T13:41:56;3.30;;;1.98;;
35326;SDS011;21436;52.348;20.928;2023-07-22T13:44:24;3.65;;;1.90;;
35326;SDS011;21436;52.348;20.928;2023-07-22T13:46:51;1.92;;;1.58;;
35326;SDS011;21436;52.348;20.928;2023-07-22T13:49:19;3.95;;;1.90;;
35326;SDS011;21436;52.348;20.928;2023-07-22T13:51:47;3.90;;;2.08;;
35326;SDS011;21436;52.348;20.928;2023-07-22T13:54:15;3.30;;;1.92;;
35326;SDS011;21436;52.348;20.928;2023-07-22T13:56:43;3.17;;;1.90;;
35326;SDS011;21436;52.348;20.928;2023-07-22T13:59:13;3.55;;;2.42;;
35326;SDS011;21436;52.348;20.928;2023-07-22T14:01:41;3.22;;;1.98;;
35326;SDS011;21436;52.348;20.928;2023-07-22T14:04:09;5.57;;;2.00;;
35326;SDS011;21436;52.348;20.928;2023-07-22T14:06:36;2.95;;;2.20;;
35326;SDS011;21436;52.348;20.928;2023-07-22T14:09:04;2.63;;;2.15;;
35326;SDS011;21436;52.348;20.928;2023-07-22T14:11:31;3.22;;;2.20;;
35326;SDS011;21436;52.348;20.928;2023-07-22T14:13:59;2.13;;;1.92;;
35326;SDS011;21436;52.348;20.928;2023-07-22T14:16:26;3.30;;;1.92;;
35326;SDS011;21436;52.348;20.928;2023-07-22T14:18:54;4.30;;;2.42;;
35326;SDS011;21436;52.348;20.928;2023-07-22T14:21:22;3.13;;;2.22;;
35326;SDS011;21436;52.348;20.928;2023-07-22T14:23:50;4.00;;;2.38;;
35326;SDS011;21436;52.348;20.928;2023-07-22T14:26:17;4.28;;;2.25;;
35326;SDS011;21436;52.348;20.928;2023-07-22T14:28:45;5.05;;;2.40;;
35326;SDS011;21436;52.348;20.928;2023-07-22T14:31:13;5.80;;;2.30;;
35326;SDS011;21436;52.348;20.928;2023-07-22T14:33:40;2.33;;;2.13;;
35326;SDS011;21436;52.348;20.928;2023-07-22T14:36:08;6.40;;;2.20;;
35326;SDS011;21436;52.348;20.928;2023-07-22T14:38:36;8.80;;;2.55;;
35326;SDS011;21436;52.348;20.928;2023-07-22T14:41:03;9.05;;;2.47;;
35326;SDS011;21436;52.348;20.928;2023-07-22T14:43:31;2.53;;;2.33;;
35326;SDS011;21436;52.348;20.928;2023-07-22T14:45:58;3.03;;;2.15;;